Time;durP1;ratioP1;P1;durP2;ratioP2;P2;SDS_P1;SDS_P2;PMS_P1;PMS_P2;Temp;Humidity;BMP_temperature;BMP_pressure;BME280_temperature;BME280_humidity;BME280_pressure;Samples;Min_cycle;Max_cycle;Signal;HPM_P1;HPM_P2
2021/07/06 00:01:48;;;;;;;13.13;10.05;;;17.70;96.60;;;;;;3587136;40;20553;-77
2021/07/06 00:04:14;;;;;;;11.68;10.45;;;17.70;96.60;;;;;;3586761;40;20331;-78
2021/07/06 00:06:40;;;;;;;12.85;11.52;;;17.70;96.60;;;;;;3587443;40;20044;-78
2021/07/06 00:09:06;;;;;;;12.85;11.60;;;17.60;96.70;;;;;;3586302;40;20354;-78
2021/07/06 00:11:32;;;;;;;11.68;10.48;;;17.60;96.80;;;;;;3587019;40;20451;-78
2021/07/06 00:13:58;;;;;;;12.52;11.23;;;17.70;96.80;;;;;;3587112;40;20057;-77
2021/07/06 00:16:24;;;;;;;11.95;10.85;;;17.60;96.80;;;;;;3594961;40;20339;-77
2021/07/06 00:18:49;;;;;;;12.85;11.18;;;17.60;96.90;;;;;;3586887;40;20042;-78
2021/07/06 00:21:16;;;;;;;14.73;11.35;;;17.60;96.90;;;;;;3586662;40;20239;-78
2021/07/06 00:23:42;;;;;;;14.70;11.50;;;17.60;97.00;;;;;;3587218;40;20274;-78
2021/07/06 00:26:08;;;;;;;18.73;12.55;;;17.60;97.00;;;;;;3586888;40;20040;-78
2021/07/06 00:28:34;;;;;;;13.90;12.40;;;17.60;97.10;;;;;;3585718;40;20083;-77
2021/07/06 00:31:00;;;;;;;14.70;12.07;;;17.60;97.10;;;;;;3587354;40;20122;-77
2021/07/06 00:33:30;;;;;;;12.55;11.15;;;17.50;97.00;;;;;;3586933;40;20040;-78
2021/07/06 00:36:01;;;;;;;14.13;11.68;;;17.50;97.10;;;;;;3585802;40;20052;-77
2021/07/06 00:38:29;;;;;;;13.70;12.00;;;17.50;97.00;;;;;;3587163;40;20040;-78
2021/07/06 00:40:56;;;;;;;23.90;16.88;;;17.50;97.20;;;;;;3586097;40;20048;-77
2021/07/06 00:43:23;;;;;;;20.10;17.60;;;17.50;97.10;;;;;;3587145;40;20032;-78
2021/07/06 00:45:50;;;;;;;23.63;18.55;;;17.50;97.10;;;;;;3586889;40;20048;-77
2021/07/06 00:48:16;;;;;;;17.90;15.90;;;17.60;97.00;;;;;;3586569;40;20055;-78
2021/07/06 00:50:42;;;;;;;15.35;13.95;;;17.60;97.00;;;;;;3577825;40;20247;-78
2021/07/06 00:53:08;;;;;;;17.83;16.13;;;17.60;96.90;;;;;;3586281;40;20043;-78
2021/07/06 00:55:34;;;;;;;17.33;14.63;;;17.60;97.20;;;;;;3586874;40;20057;-78
2021/07/06 00:58:01;;;;;;;20.17;13.18;;;17.60;96.80;;;;;;3583358;40;20032;-78
2021/07/06 01:00:27;;;;;;;12.02;10.82;;;17.70;96.80;;;;;;3596604;40;20046;-78
2021/07/06 01:02:53;;;;;;;12.02;10.65;;;17.60;96.80;;;;;;3586289;40;20036;-78
2021/07/06 01:05:22;;;;;;;14.07;10.35;;;17.60;96.80;;;;;;3585847;40;20627;-76
2021/07/06 01:07:48;;;;;;;12.05;10.15;;;17.70;96.90;;;;;;3585842;40;20055;-78
2021/07/06 01:10:15;;;;;;;11.88;9.55;;;17.60;96.80;;;;;;3586134;40;20041;-77
2021/07/06 01:12:43;;;;;;;14.38;9.80;;;17.70;96.80;;;;;;3585814;40;20145;-77
2021/07/06 01:15:13;;;;;;;11.00;9.57;;;17.70;96.80;;;;;;3577389;40;20350;-78
2021/07/06 01:17:40;;;;;;;13.38;10.10;;;17.60;96.70;;;;;;3586694;40;20037;-77
2021/07/06 01:20:09;;;;;;;11.13;9.30;;;17.60;96.60;;;;;;3586669;40;20036;-77
2021/07/06 01:22:35;;;;;;;11.10;9.80;;;17.70;96.70;;;;;;3586343;40;20121;-77
2021/07/06 01:25:03;;;;;;;10.48;9.43;;;17.70;96.60;;;;;;3584016;40;20069;-78
2021/07/06 01:27:29;;;;;;;9.43;8.27;;;17.60;96.60;;;;;;3576529;40;20060;-77
2021/07/06 01:29:55;;;;;;;11.50;8.75;;;17.70;96.60;;;;;;3573983;40;20061;-78
2021/07/06 01:32:24;;;;;;;12.90;9.45;;;17.70;96.60;;;;;;3596932;39;20040;-77
2021/07/06 01:34:50;;;;;;;11.82;9.52;;;17.70;96.70;;;;;;3596388;39;20051;-77
2021/07/06 01:37:19;;;;;;;10.98;8.35;;;17.70;96.60;;;;;;3596621;39;20040;-77
2021/07/06 01:39:47;;;;;;;24.77;11.38;;;17.60;96.60;;;;;;3589809;39;20041;-78
2021/07/06 01:42:31;;;;;;;12.25;11.05;;;17.60;96.60;;;;;;3586509;40;20407;-78
2021/07/06 01:45:05;;;;;;;;;;;17.60;96.70;;;;;;3594622;40;20102;-78
2021/07/06 01:47:31;;;;;;;12.80;11.45;;;17.60;96.90;;;;;;3586288;40;20469;-78
2021/07/06 01:50:00;;;;;;;13.23;10.38;;;17.60;96.70;;;;;;3586360;40;20040;-78
2021/07/06 01:52:26;;;;;;;12.38;9.32;;;17.50;96.70;;;;;;3569864;40;20032;-78
2021/07/06 01:54:53;;;;;;;12.63;9.38;;;17.60;97.00;;;;;;3586679;40;20045;-78
2021/07/06 01:57:24;;;;;;;14.20;9.88;;;17.50;96.90;;;;;;3588143;40;20145;-78
2021/07/06 01:59:51;;;;;;;10.93;9.82;;;17.50;97.00;;;;;;3586648;40;20286;-77
2021/07/06 02:02:19;;;;;;;12.95;10.00;;;17.50;97.00;;;;;;3585385;40;20063;-78
2021/07/06 02:04:49;;;;;;;11.45;9.65;;;17.50;97.10;;;;;;3586465;40;20040;-78
2021/07/06 02:07:16;;;;;;;10.15;9.15;;;17.50;97.00;;;;;;3586068;40;20032;-78
2021/07/06 02:09:42;;;;;;;13.88;10.05;;;17.50;97.10;;;;;;3581475;40;20051;-78
2021/07/06 02:12:08;;;;;;;12.60;11.02;;;17.50;97.20;;;;;;3576168;40;20041;-78
2021/07/06 02:14:34;;;;;;;11.65;10.48;;;17.40;97.30;;;;;;3576608;40;20045;-78
2021/07/06 02:16:59;;;;;;;13.75;10.02;;;17.40;97.30;;;;;;3576114;40;20044;-80
2021/07/06 02:19:25;;;;;;;12.48;11.25;;;17.40;97.30;;;;;;3577446;40;20350;-79
2021/07/06 02:21:51;;;;;;;11.98;10.50;;;17.40;97.50;;;;;;3576095;40;20056;-78
2021/07/06 02:24:17;;;;;;;11.15;10.02;;;17.40;97.50;;;;;;3576108;40;20271;-78
2021/07/06 02:26:42;;;;;;;11.23;10.13;;;17.40;97.50;;;;;;3585366;40;20220;-79
2021/07/06 02:29:08;;;;;;;10.90;9.77;;;17.40;97.50;;;;;;3586058;40;20680;-78
2021/07/06 02:31:34;;;;;;;12.02;10.35;;;17.40;97.60;;;;;;3586488;40;20438;-79
2021/07/06 02:34:00;;;;;;;10.57;9.57;;;17.40;97.70;;;;;;3585837;40;20137;-79
2021/07/06 02:36:26;;;;;;;10.43;9.23;;;17.40;97.80;;;;;;3584958;40;20359;-78
2021/07/06 02:38:52;;;;;;;12.18;10.82;;;17.40;97.80;;;;;;3586214;40;20036;-80
2021/07/06 02:41:18;;;;;;;11.27;9.25;;;17.40;97.90;;;;;;3586143;40;20041;-78
2021/07/06 02:43:43;;;;;;;11.07;9.95;;;17.40;97.90;;;;;;3585295;40;20040;-79
2021/07/06 02:46:10;;;;;;;13.05;10.10;;;17.40;97.90;;;;;;3584910;40;20047;-78
2021/07/06 02:48:38;;;;;;;11.25;9.70;;;17.30;98.00;;;;;;3585964;40;20040;-79
2021/07/06 02:51:03;;;;;;;12.35;9.10;;;17.30;98.10;;;;;;3584400;40;20064;-79
2021/07/06 02:53:29;;;;;;;9.23;8.35;;;17.30;98.10;;;;;;3589179;40;20319;-79
2021/07/06 02:55:55;;;;;;;10.65;9.45;;;17.30;98.10;;;;;;3585829;40;20040;-79
2021/07/06 02:58:21;;;;;;;12.18;8.75;;;17.30;98.10;;;;;;3586880;40;20421;-79
2021/07/06 03:00:50;;;;;;;10.25;9.35;;;17.30;98.10;;;;;;3585055;40;20056;-79
2021/07/06 03:03:16;;;;;;;12.27;8.48;;;17.30;98.30;;;;;;3585726;40;20101;-78
2021/07/06 03:05:41;;;;;;;14.27;8.10;;;17.30;98.50;;;;;;3586360;40;20040;-79
2021/07/06 03:08:07;;;;;;;11.40;8.45;;;17.30;98.40;;;;;;3584888;40;20044;-78
2021/07/06 03:10:36;;;;;;;12.57;7.93;;;17.30;98.50;;;;;;3581810;40;20037;-79
2021/07/06 03:13:03;;;;;;;12.32;8.13;;;17.30;98.50;;;;;;3585547;40;20044;-79
2021/07/06 03:15:31;;;;;;;7.88;7.07;;;17.30;98.70;;;;;;3586212;40;20044;-78
2021/07/06 03:17:59;;;;;;;8.00;7.22;;;17.30;98.70;;;;;;3585913;40;20569;-78
2021/07/06 03:20:26;;;;;;;9.15;6.38;;;17.30;99.00;;;;;;3576894;40;20133;-78
2021/07/06 03:22:53;;;;;;;7.70;6.70;;;17.30;98.90;;;;;;3585768;40;20041;-80
2021/07/06 03:25:22;;;;;;;7.13;6.55;;;17.30;98.80;;;;;;3567896;40;20054;-78
2021/07/06 03:27:48;;;;;;;7.20;6.43;;;17.30;98.90;;;;;;3585073;40;20051;-79
2021/07/06 03:30:24;;;;;;;6.10;5.57;;;17.30;98.90;;;;;;3585549;40;20049;-78
2021/07/06 03:32:52;;;;;;;6.00;5.38;;;17.30;99.00;;;;;;3585793;40;20036;-80
2021/07/06 03:35:18;;;;;;;8.80;5.30;;;17.30;98.90;;;;;;3585434;40;20047;-80
2021/07/06 03:37:45;;;;;;;6.57;5.97;;;17.30;98.90;;;;;;3585010;40;20075;-79
2021/07/06 03:40:12;;;;;;;5.53;5.03;;;17.40;99.10;;;;;;3584572;40;20057;-78
2021/07/06 03:42:38;;;;;;;6.25;5.65;;;17.40;99.00;;;;;;3585869;40;20036;-78
2021/07/06 03:45:05;;;;;;;5.35;4.85;;;17.40;99.10;;;;;;3584637;40;20047;-78
2021/07/06 03:47:31;;;;;;;5.75;4.15;;;17.40;98.90;;;;;;3585640;40;20052;-78
2021/07/06 03:49:57;;;;;;;9.88;5.28;;;17.40;99.00;;;;;;3584395;40;20093;-79
2021/07/06 03:52:23;;;;;;;5.70;4.78;;;17.40;99.10;;;;;;3584887;40;20425;-79
2021/07/06 03:54:49;;;;;;;5.32;4.55;;;17.50;99.20;;;;;;3595706;40;20044;-78
2021/07/06 03:57:14;;;;;;;7.43;4.70;;;17.40;99.10;;;;;;3589449;40;20475;-78
2021/07/06 03:59:40;;;;;;;5.88;4.45;;;17.50;99.00;;;;;;3584480;40;20048;-77
2021/07/06 04:02:06;;;;;;;6.03;4.72;;;17.50;99.20;;;;;;3585211;40;20327;-78
2021/07/06 04:04:32;;;;;;;6.75;4.50;;;17.50;99.10;;;;;;3587187;40;20055;-78
2021/07/06 04:06:58;;;;;;;6.05;4.85;;;17.50;99.10;;;;;;3585948;40;20347;-78
2021/07/06 04:09:24;;;;;;;4.57;4.07;;;17.50;99.30;;;;;;3585993;40;20040;-77
2021/07/06 04:11:50;;;;;;;4.68;4.28;;;17.50;99.20;;;;;;3576936;40;20053;-77
2021/07/06 04:14:15;;;;;;;5.03;4.50;;;17.50;99.10;;;;;;3578070;40;20073;-77
2021/07/06 04:16:41;;;;;;;5.43;4.55;;;17.50;99.10;;;;;;3582551;40;20326;-78
2021/07/06 04:19:07;;;;;;;6.78;4.55;;;17.50;99.10;;;;;;3575811;40;20056;-79
2021/07/06 04:21:34;;;;;;;4.32;3.60;;;17.50;99.20;;;;;;3585529;40;20158;-79
2021/07/06 04:24:00;;;;;;;5.60;4.68;;;17.50;99.20;;;;;;3586676;40;20033;-77
2021/07/06 04:26:27;;;;;;;6.20;4.68;;;17.60;99.30;;;;;;3587110;40;20103;-78
2021/07/06 04:28:53;;;;;;;4.95;4.55;;;17.60;99.20;;;;;;3585788;40;20047;-77
2021/07/06 04:31:19;;;;;;;6.05;5.25;;;17.70;99.20;;;;;;3588352;40;20048;-78
2021/07/06 04:33:45;;;;;;;5.57;5.18;;;17.70;99.20;;;;;;3586566;40;20044;-80
2021/07/06 04:36:11;;;;;;;6.57;5.93;;;17.70;99.30;;;;;;3586459;40;20046;-78
2021/07/06 04:38:36;;;;;;;10.20;5.78;;;17.70;99.30;;;;;;3586824;40;20129;-80
2021/07/06 04:41:02;;;;;;;7.28;6.57;;;17.80;99.30;;;;;;3586665;40;20044;-79
2021/07/06 04:43:28;;;;;;;5.20;4.85;;;17.80;99.40;;;;;;3586698;40;20044;-80
2021/07/06 04:45:54;;;;;;;8.27;4.70;;;17.80;99.30;;;;;;3585297;40;20111;-79
2021/07/06 04:48:20;;;;;;;7.22;4.68;;;17.80;99.30;;;;;;3585758;40;20104;-80
2021/07/06 04:50:46;;;;;;;5.97;5.38;;;17.80;99.30;;;;;;3586738;40;20036;-79
2021/07/06 04:53:12;;;;;;;6.90;4.75;;;17.90;99.30;;;;;;3586992;40;20041;-80
2021/07/06 04:55:39;;;;;;;5.40;4.95;;;17.90;99.30;;;;;;3585617;40;20493;-79
2021/07/06 04:58:05;;;;;;;5.90;5.30;;;18.00;99.30;;;;;;3587678;40;20040;-79
2021/07/06 05:00:31;;;;;;;5.95;5.22;;;18.00;99.30;;;;;;3586592;40;20036;-78
2021/07/06 05:02:58;;;;;;;6.55;5.95;;;18.00;99.30;;;;;;3584756;40;20052;-82
2021/07/06 05:05:26;;;;;;;4.43;3.83;;;18.10;99.30;;;;;;3575135;40;20063;-80
2021/07/06 05:07:53;;;;;;;4.22;3.58;;;18.10;99.20;;;;;;3584319;40;20354;-80
2021/07/06 05:10:23;;;;;;;4.80;3.35;;;18.20;99.30;;;;;;3586480;40;20087;-80
2021/07/06 05:12:49;;;;;;;3.83;3.53;;;18.20;99.30;;;;;;3585199;40;20036;-79
2021/07/06 05:15:14;;;;;;;3.17;2.72;;;18.20;99.30;;;;;;3582557;40;20290;-80
2021/07/06 05:17:40;;;;;;;4.75;2.47;;;18.20;99.30;;;;;;3586870;40;20037;-80
2021/07/06 05:20:06;;;;;;;3.45;1.80;;;18.30;99.30;;;;;;3586206;40;20032;-78
2021/07/06 05:22:32;;;;;;;2.55;1.70;;;18.30;99.30;;;;;;3585235;40;20044;-78
2021/07/06 05:24:58;;;;;;;3.83;1.75;;;18.30;99.20;;;;;;3584172;40;20324;-80
2021/07/06 05:27:24;;;;;;;2.65;1.40;;;18.40;99.30;;;;;;3585654;40;20032;-79
2021/07/06 05:29:50;;;;;;;2.08;1.40;;;18.40;99.20;;;;;;3588757;40;20653;-79
2021/07/06 05:32:20;;;;;;;2.10;1.45;;;18.40;99.20;;;;;;3586621;39;20040;-78
2021/07/06 05:34:46;;;;;;;2.00;1.05;;;18.40;99.20;;;;;;3585391;40;20163;-79
2021/07/06 05:37:16;;;;;;;1.83;1.13;;;18.50;99.20;;;;;;3580828;40;20049;-79
2021/07/06 05:39:44;;;;;;;2.08;0.70;;;18.50;99.10;;;;;;3582554;40;20122;-80
2021/07/06 05:42:09;;;;;;;2.20;0.75;;;18.60;99.10;;;;;;3586232;40;20353;-79
2021/07/06 05:44:36;;;;;;;2.55;0.80;;;18.60;99.10;;;;;;3586724;40;20048;-83
2021/07/06 05:47:05;;;;;;;1.38;0.90;;;18.70;99.00;;;;;;3586073;40;20044;-81
2021/07/06 05:49:30;;;;;;;0.65;0.57;;;18.80;99.00;;;;;;3585891;40;20432;-79
2021/07/06 05:51:56;;;;;;;1.17;0.68;;;18.90;98.80;;;;;;3585173;40;20052;-79
2021/07/06 05:54:22;;;;;;;1.00;0.40;;;19.00;98.70;;;;;;3583204;40;20049;-79
2021/07/06 05:56:48;;;;;;;0.70;0.60;;;19.10;98.70;;;;;;3587810;40;20359;-80
2021/07/06 05:59:13;;;;;;;1.83;0.60;;;19.20;98.40;;;;;;3568824;40;20040;-83
2021/07/06 06:01:39;;;;;;;0.47;0.30;;;19.30;98.30;;;;;;3585409;40;20036;-80
2021/07/06 06:04:06;;;;;;;1.52;0.73;;;19.30;98.30;;;;;;3586058;40;20331;-79
2021/07/06 06:06:31;;;;;;;2.50;0.50;;;19.30;98.30;;;;;;3585396;40;20047;-79
2021/07/06 06:08:57;;;;;;;3.22;0.40;;;19.30;98.20;;;;;;3584958;40;20064;-80
2021/07/06 06:11:24;;;;;;;1.08;0.47;;;19.30;98.20;;;;;;3584027;40;20044;-79
2021/07/06 06:13:49;;;;;;;2.33;0.70;;;19.30;98.30;;;;;;3582628;40;20047;-79
2021/07/06 06:16:15;;;;;;;1.90;0.80;;;19.30;98.10;;;;;;3584833;40;20036;-78
2021/07/06 06:18:41;;;;;;;1.45;0.95;;;19.30;98.10;;;;;;3585320;40;20044;-82
2021/07/06 06:21:07;;;;;;;1.95;0.88;;;19.30;98.30;;;;;;3584694;40;20041;-79
2021/07/06 06:23:33;;;;;;;5.53;0.40;;;19.30;98.00;;;;;;3586308;40;20343;-81
2021/07/06 06:25:58;;;;;;;1.70;0.73;;;19.30;97.80;;;;;;3584586;40;20052;-82
2021/07/06 06:28:24;;;;;;;1.20;0.70;;;19.40;97.70;;;;;;3586298;40;20441;-78
2021/07/06 06:30:50;;;;;;;2.47;0.30;;;19.30;97.90;;;;;;3588033;40;20107;-79
2021/07/06 06:33:16;;;;;;;2.90;0.40;;;19.30;97.90;;;;;;3575954;40;20052;-79
2021/07/06 06:35:43;;;;;;;2.80;0.50;;;19.30;98.00;;;;;;3585986;40;20051;-78
2021/07/06 06:38:09;;;;;;;1.70;0.73;;;19.30;98.20;;;;;;3583219;40;20040;-77
2021/07/06 06:40:35;;;;;;;1.60;0.40;;;19.20;98.40;;;;;;3586101;40;20051;-78
2021/07/06 06:43:01;;;;;;;3.17;0.88;;;19.20;98.60;;;;;;3576691;40;20040;-77
2021/07/06 06:45:30;;;;;;;3.92;1.48;;;19.10;98.80;;;;;;3585772;40;20074;-78
2021/07/06 06:47:58;;;;;;;2.95;0.80;;;19.10;98.90;;;;;;3584831;40;20044;-77
2021/07/06 06:50:23;;;;;;;2.35;0.50;;;19.00;98.90;;;;;;3585948;40;20044;-77
2021/07/06 06:52:49;;;;;;;1.95;0.70;;;19.00;99.10;;;;;;3586444;40;20327;-77
2021/07/06 06:55:15;;;;;;;1.40;0.70;;;19.00;99.00;;;;;;3584890;40;20337;-79
2021/07/06 06:57:41;;;;;;;1.65;0.90;;;18.90;99.20;;;;;;3585970;40;20148;-79
2021/07/06 07:00:08;;;;;;;1.30;0.50;;;19.00;99.10;;;;;;3585698;40;20044;-80
2021/07/06 07:02:35;;;;;;;1.52;0.60;;;18.90;99.20;;;;;;3584924;40;20040;-78
2021/07/06 07:05:01;;;;;;;1.45;0.60;;;18.90;99.30;;;;;;3585769;40;20064;-79
2021/07/06 07:07:28;;;;;;;2.80;0.50;;;18.90;99.30;;;;;;3585003;40;20051;-79
2021/07/06 07:09:54;;;;;;;1.23;0.52;;;19.00;99.30;;;;;;3580183;40;20141;-80
2021/07/06 07:12:20;;;;;;;0.90;0.50;;;19.00;99.40;;;;;;3584860;40;20040;-81
2021/07/06 07:14:46;;;;;;;1.63;0.60;;;19.00;99.20;;;;;;3593456;40;20141;-80
2021/07/06 07:17:13;;;;;;;2.85;0.60;;;19.10;99.30;;;;;;3584783;40;20411;-80
2021/07/06 07:19:39;;;;;;;2.80;0.70;;;19.00;99.30;;;;;;3586032;40;20053;-82
2021/07/06 07:22:06;;;;;;;2.47;0.45;;;19.00;99.40;;;;;;3584577;40;20140;-78
2021/07/06 07:24:32;;;;;;;1.02;0.40;;;19.10;99.40;;;;;;3576537;40;20133;-81
2021/07/06 07:26:59;;;;;;;1.38;0.38;;;19.10;99.50;;;;;;3585643;40;20546;-80
2021/07/06 07:29:25;;;;;;;1.50;0.45;;;19.10;99.40;;;;;;3576833;40;20051;-80
2021/07/06 07:31:52;;;;;;;1.63;0.65;;;19.10;99.40;;;;;;3586748;39;20223;-81
2021/07/06 07:34:18;;;;;;;2.20;0.40;;;19.20;99.40;;;;;;3584399;40;20040;-80
2021/07/06 07:36:46;;;;;;;2.15;0.70;;;19.20;99.40;;;;;;3583817;40;20093;-81
2021/07/06 07:39:13;;;;;;;1.75;0.50;;;19.30;99.40;;;;;;3584748;40;20048;-80
2021/07/06 07:41:39;;;;;;;1.17;0.60;;;19.30;99.30;;;;;;3592295;39;20419;-80
2021/07/06 07:44:05;;;;;;;6.65;0.80;;;19.30;99.30;;;;;;3577772;40;20130;-80
2021/07/06 07:46:31;;;;;;;2.97;0.77;;;19.40;99.20;;;;;;3577961;40;20068;-81
2021/07/06 07:48:57;;;;;;;2.67;0.60;;;19.40;99.10;;;;;;3584252;40;20338;-80
2021/07/06 07:51:23;;;;;;;13.55;1.20;;;19.50;99.10;;;;;;3585790;40;20335;-82
2021/07/06 07:53:49;;;;;;;3.25;0.47;;;19.50;99.10;;;;;;3587827;40;20162;-81
2021/07/06 07:56:15;;;;;;;4.90;0.85;;;19.50;99.00;;;;;;3586871;40;20046;-80
2021/07/06 07:58:41;;;;;;;3.47;0.82;;;19.60;98.90;;;;;;3586372;40;20064;-82
2021/07/06 08:01:07;;;;;;;4.20;0.52;;;19.60;98.90;;;;;;3587094;40;20063;-81
2021/07/06 08:03:33;;;;;;;2.80;0.50;;;19.70;98.70;;;;;;3587519;40;20050;-81
2021/07/06 08:06:00;;;;;;;1.80;0.85;;;19.70;98.70;;;;;;3586079;40;20048;-84
2021/07/06 08:08:26;;;;;;;1.05;0.32;;;19.80;98.70;;;;;;3586553;40;20068;-83
2021/07/06 08:10:53;;;;;;;0.88;0.30;;;19.80;98.50;;;;;;3577621;40;20263;-81
2021/07/06 08:13:25;;;;;;;2.08;0.52;;;19.80;98.50;;;;;;3587019;40;20084;-85
2021/07/06 08:15:52;;;;;;;1.75;0.55;;;19.90;98.50;;;;;;3577673;40;20044;-81
2021/07/06 08:18:24;;;;;;;1.63;0.50;;;19.90;98.60;;;;;;3586821;40;20278;-78
2021/07/06 08:20:50;;;;;;;2.35;0.57;;;20.00;98.50;;;;;;3578052;40;20044;-80
2021/07/06 08:23:19;;;;;;;2.00;0.50;;;20.00;98.40;;;;;;3586588;40;20036;-78
2021/07/06 08:25:46;;;;;;;1.00;0.50;;;20.10;98.40;;;;;;3587251;40;20343;-80
2021/07/06 08:28:13;;;;;;;3.00;0.70;;;20.10;98.40;;;;;;3577269;40;20052;-79
2021/07/06 08:30:39;;;;;;;2.75;0.43;;;20.10;98.20;;;;;;3578536;40;20036;-78
2021/07/06 08:33:06;;;;;;;6.65;0.88;;;20.20;98.30;;;;;;3585739;40;20040;-86
2021/07/06 08:35:33;;;;;;;2.90;0.50;;;20.20;98.20;;;;;;3586033;40;20040;-80
2021/07/06 08:37:59;;;;;;;3.38;0.50;;;20.10;98.10;;;;;;3585397;40;20040;-78
2021/07/06 08:40:25;;;;;;;3.17;0.70;;;20.20;98.10;;;;;;3586980;40;20052;-80
2021/07/06 08:43:00;;;;;;;2.10;0.52;;;20.20;98.10;;;;;;3591422;39;20098;-78
2021/07/06 08:45:27;;;;;;;3.35;0.80;;;20.20;98.00;;;;;;3585911;40;20048;-78
2021/07/06 08:47:55;;;;;;;2.15;0.60;;;20.30;97.90;;;;;;3586970;40;20349;-81
2021/07/06 08:50:22;;;;;;;1.98;0.63;;;20.30;97.90;;;;;;3586508;40;20330;-80
2021/07/06 08:52:48;;;;;;;2.08;0.50;;;20.40;97.90;;;;;;3587390;40;20036;-78
2021/07/06 08:55:16;;;;;;;2.05;0.63;;;20.40;97.80;;;;;;3586641;40;20515;-80
2021/07/06 08:57:43;;;;;;;1.75;1.63;;;20.40;97.70;;;;;;3583588;40;20445;-81
2021/07/06 09:00:12;;;;;;;1.13;0.50;;;20.40;97.80;;;;;;3580223;40;20035;-79
2021/07/06 09:02:38;;;;;;;2.67;0.70;;;20.50;97.80;;;;;;3585804;40;20036;-81
2021/07/06 09:05:05;;;;;;;1.02;0.45;;;20.60;97.60;;;;;;3586680;40;20323;-80
2021/07/06 09:07:42;;;;;;;4.05;0.40;;;20.60;97.50;;;;;;3586769;40;20061;-80
2021/07/06 09:10:13;;;;;;;1.88;0.52;;;20.70;96.90;;;;;;3586283;40;20136;-78
2021/07/06 09:12:39;;;;;;;2.42;0.75;;;20.90;97.50;;;;;;3586915;40;20696;-79
2021/07/06 09:15:32;;;;;;;1.17;0.40;;;21.00;97.30;;;;;;3586100;40;20044;-82
2021/07/06 09:18:15;;;;;;;1.50;0.43;;;21.10;97.10;;;;;;3584597;40;20585;-83
2021/07/06 09:20:42;;;;;;;12.27;1.50;;;21.20;96.30;;;;;;3584165;40;20048;-84
2021/07/06 09:23:26;;;;;;;7.32;0.73;;;21.30;96.60;;;;;;3584600;40;20085;-81
2021/07/06 09:26:22;;;;;;;2.38;0.68;;;21.30;95.80;;;;;;3584867;40;20036;-79
2021/07/06 09:28:53;;;;;;;3.30;0.93;;;21.40;95.70;;;;;;3585162;40;20040;-82
2021/07/06 09:31:28;;;;;;;4.85;0.90;;;21.40;96.10;;;;;;3586776;40;20214;-80
2021/07/06 09:34:01;;;;;;;1.77;0.45;;;21.40;96.20;;;;;;3584644;40;20043;-85
2021/07/06 09:36:37;;;;;;;6.47;0.68;;;21.50;95.40;;;;;;3586346;40;20051;-83
2021/07/06 09:39:22;;;;;;;2.20;0.30;;;21.50;94.70;;;;;;3585840;40;20044;-80
2021/07/06 09:42:00;;;;;;;4.05;0.85;;;21.60;94.70;;;;;;3585737;40;20048;-81
2021/07/06 09:44:34;;;;;;;2.28;0.35;;;21.90;94.30;;;;;;3585500;40;20154;-81
2021/07/06 09:47:07;;;;;;;4.70;0.40;;;22.30;94.40;;;;;;3586074;40;20048;-81
2021/07/06 09:49:33;;;;;;;3.63;0.30;;;22.60;95.20;;;;;;3586585;40;20424;-82
2021/07/06 09:52:15;;;;;;;4.63;0.40;;;22.90;93.90;;;;;;3586136;40;20054;-82
2021/07/06 09:54:46;;;;;;;3.15;0.43;;;23.00;92.60;;;;;;3590318;40;20469;-78
2021/07/06 09:57:37;;;;;;;4.88;0.50;;;23.00;93.40;;;;;;3584833;40;20710;-84
2021/07/06 10:00:15;;;;;;;4.65;0.85;;;23.10;93.60;;;;;;3585868;40;20125;-80
2021/07/06 10:02:42;;;;;;;3.72;0.40;;;23.30;91.70;;;;;;3585301;40;20043;-78
2021/07/06 10:05:18;;;;;;;13.65;1.02;;;23.60;93.10;;;;;;3585034;40;20028;-78
2021/07/06 10:07:44;;;;;;;16.27;1.35;;;23.60;91.30;;;;;;3586498;40;20205;-79
2021/07/06 10:10:13;;;;;;;5.65;0.57;;;23.50;91.60;;;;;;3584757;40;20048;-82
2021/07/06 10:12:44;;;;;;;3.28;0.50;;;23.40;92.20;;;;;;3586382;40;20039;-79
2021/07/06 10:15:11;;;;;;;1.02;0.30;;;23.30;90.40;;;;;;3585897;40;20044;-83
2021/07/06 10:17:39;;;;;;;1.25;0.22;;;23.40;91.50;;;;;;3585373;40;20044;-77
2021/07/06 10:20:07;;;;;;;2.45;0.38;;;23.40;91.50;;;;;;3585229;40;20059;-77
2021/07/06 10:22:33;;;;;;;1.42;0.30;;;23.50;92.00;;;;;;3586135;40;20546;-77
2021/07/06 10:25:04;;;;;;;2.95;0.40;;;23.60;92.00;;;;;;3586254;40;20037;-81
2021/07/06 10:27:33;;;;;;;4.93;0.30;;;23.70;91.30;;;;;;3586526;40;20105;-78
2021/07/06 10:30:19;;;;;;;14.82;0.85;;;23.80;90.90;;;;;;3580819;40;20044;-83
2021/07/06 10:32:49;;;;;;;2.05;0.40;;;23.90;87.60;;;;;;3585296;40;20583;-79
2021/07/06 10:35:16;;;;;;;1.65;0.20;;;24.10;91.40;;;;;;3585566;40;20425;-81
2021/07/06 10:37:42;;;;;;;7.78;0.68;;;24.30;91.20;;;;;;3585762;40;20055;-80
2021/07/06 10:40:16;;;;;;;3.70;0.35;;;24.40;90.30;;;;;;3585848;40;20036;-83
2021/07/06 10:42:44;;;;;;;0.95;0.20;;;24.30;85.20;;;;;;3586280;40;20076;-79
2021/07/06 10:45:34;;;;;;;3.08;0.22;;;24.30;88.50;;;;;;3585428;40;20072;-80
2021/07/06 10:48:00;;;;;;;2.83;0.98;;;24.20;82.40;;;;;;3580093;40;20039;-78
2021/07/06 10:50:32;;;;;;;8.32;0.60;;;24.20;90.10;;;;;;3584830;40;20077;-80
2021/07/06 10:53:16;;;;;;;9.85;0.57;;;24.10;86.40;;;;;;3586251;40;20048;-86
2021/07/06 10:55:45;;;;;;;6.15;0.40;;;24.00;83.10;;;;;;3585283;40;20334;-82
2021/07/06 10:58:16;;;;;;;6.68;0.43;;;23.90;89.60;;;;;;3587458;40;20051;-78
2021/07/06 11:00:43;;;;;;;5.10;0.30;;;24.00;90.30;;;;;;3585186;40;20060;-80
2021/07/06 11:03:16;;;;;;;2.50;0.30;;;24.20;90.00;;;;;;3585747;40;20471;-84
2021/07/06 11:05:42;;;;;;;4.57;0.32;;;24.40;88.10;;;;;;3586090;40;20096;-78
2021/07/06 11:08:41;;;;;;;1.45;0.20;;;24.60;90.00;;;;;;3585578;40;20337;-79
2021/07/06 11:11:08;;;;;;;1.13;0.20;;;24.50;80.20;;;;;;3585496;40;20137;-78
2021/07/06 11:13:34;;;;;;;1.42;0.30;;;24.30;87.70;;;;;;3584770;40;20059;-80
2021/07/06 11:16:03;;;;;;;6.13;0.45;;;24.40;88.50;;;;;;3585681;40;20617;-78
2021/07/06 11:18:41;;;;;;;1.00;0.20;;;24.60;87.00;;;;;;3582616;40;20130;-79
2021/07/06 11:21:31;;;;;;;1.58;0.25;;;24.80;84.00;;;;;;3584428;40;20068;-79
2021/07/06 11:24:13;;;;;;;0.38;0.20;;;24.80;78.30;;;;;;3585782;40;20310;-81
2021/07/06 11:26:41;;;;;;;3.45;0.65;;;24.70;78.60;;;;;;3586021;40;20028;-80
2021/07/06 11:29:06;;;;;;;0.93;0.20;;;24.70;85.60;;;;;;3585109;40;20041;-82
2021/07/06 11:31:32;;;;;;;5.03;0.30;;;24.80;85.80;;;;;;3586511;40;20133;-80
2021/07/06 11:34:04;;;;;;;3.28;0.40;;;24.70;85.10;;;;;;3584411;40;20044;-80
2021/07/06 11:36:30;;;;;;;1.40;0.20;;;24.70;85.20;;;;;;3585066;40;20044;-80
2021/07/06 11:38:57;;;;;;;5.35;0.55;;;24.70;85.10;;;;;;3585024;40;20243;-81
2021/07/06 11:41:26;;;;;;;4.60;0.60;;;24.70;83.90;;;;;;3586238;40;20056;-86
2021/07/06 11:43:52;;;;;;;1.20;0.20;;;24.60;82.40;;;;;;3585147;40;20051;-81
2021/07/06 11:46:38;;;;;;;1.77;0.10;;;24.40;83.80;;;;;;3577981;40;20497;-81
2021/07/06 11:49:05;;;;;;;4.22;0.43;;;24.20;83.20;;;;;;3585355;40;20130;-82
2021/07/06 11:51:39;;;;;;;0.73;0.20;;;24.00;83.70;;;;;;3585876;40;20032;-81
2021/07/06 11:54:08;;;;;;;0.88;0.28;;;23.80;82.30;;;;;;3579292;40;20135;-78
2021/07/06 11:56:36;;;;;;;6.70;0.60;;;23.50;85.40;;;;;;3576308;40;20049;-79
2021/07/06 11:59:09;;;;;;;2.35;0.30;;;23.30;87.10;;;;;;3594036;39;20129;-77
2021/07/06 12:01:34;;;;;;;2.05;0.20;;;23.10;86.90;;;;;;3585998;40;20048;-80
2021/07/06 12:04:00;;;;;;;2.10;0.28;;;22.90;88.10;;;;;;3576176;40;20024;-83
2021/07/06 12:06:28;;;;;;;3.75;0.30;;;22.90;88.10;;;;;;3584414;40;20044;-79
2021/07/06 12:08:55;;;;;;;2.28;0.20;;;22.90;87.20;;;;;;3584483;40;20056;-82
2021/07/06 12:11:22;;;;;;;1.58;0.35;;;22.90;86.60;;;;;;3584604;40;20323;-79
2021/07/06 12:13:55;;;;;;;2.45;0.30;;;23.10;87.60;;;;;;3583560;40;20049;-84
2021/07/06 12:16:27;;;;;;;2.15;0.20;;;23.40;85.20;;;;;;3585666;40;20346;-80
2021/07/06 12:19:00;;;;;;;3.03;0.30;;;23.70;84.40;;;;;;3585600;40;20047;-80
2021/07/06 12:21:26;;;;;;;1.40;0.30;;;24.10;83.80;;;;;;3585371;40;20044;-80
2021/07/06 12:23:54;;;;;;;1.23;0.20;;;24.40;84.60;;;;;;3585587;40;20048;-78
2021/07/06 12:26:21;;;;;;;1.98;0.20;;;24.60;83.70;;;;;;3586022;40;20118;-79
2021/07/06 12:28:47;;;;;;;2.35;0.40;;;24.80;84.60;;;;;;3587182;40;20044;-80
2021/07/06 12:31:25;;;;;;;5.70;0.20;;;25.00;84.30;;;;;;3586775;40;20033;-79
2021/07/06 12:34:12;;;;;;;1.10;0.20;;;25.20;79.50;;;;;;3587206;40;20227;-79
2021/07/06 12:36:57;;;;;;;4.50;0.47;;;25.40;74.80;;;;;;3587114;40;20080;-78
2021/07/06 12:39:26;;;;;;;1.85;0.30;;;25.40;73.80;;;;;;3586332;40;20037;-80
2021/07/06 12:41:53;;;;;;;2.58;0.45;;;25.30;76.70;;;;;;3587170;40;20047;-80
2021/07/06 12:44:30;;;;;;;2.08;0.20;;;25.20;75.90;;;;;;3586726;40;20059;-81
2021/07/06 12:47:22;;;;;;;1.20;0.20;;;25.10;71.10;;;;;;3585793;40;20047;-81
2021/07/06 12:49:56;;;;;;;4.97;0.20;;;25.10;73.10;;;;;;3586654;40;20111;-80